Itabela, Brazil
Current Conditions -  °F | °C
As of 9:00 AM on Monday 24 Nov 2014 (Local Time) from SBPS Reporting Station
Light Rain Light Rain  
Wind Chill: 77°   Ceiling: 2000
Heat Index: 78°   Visibility: 4mi
Dew Point: 73°   Wind: 9mph
Humidity: 89%   Direction: 50°NE
Pressure: 30"   Gusts: NA
Location:  16.58°S, 39.55°W
Report Text: SBPS 241200Z 05008KT 6000 -RA SCT010 BKN020 25/23 Q1016
Loading
Personal Weather Stations






























Interactive Weather Map New forecast layout! Learn more

10-Day Weather Forecast

Advertisements
Track Severe Weather on mobile